Time;durP1;ratioP1;P1;durP2;ratioP2;P2;SDS_P1;SDS_P2;PMS_P1;PMS_P2;Temp;Humidity;BMP_temperature;BMP_pressure;BME280_temperature;BME280_humidity;BME280_pressure;Samples;Min_cycle;Max_cycle;Signal;HPM_P1;HPM_P2
2021/05/10 00:01:13;;;;;;;1.90;0.60;;;21.40;52.40;;;;;;5017326;28;20057;-90
2021/05/10 00:03:39;;;;;;;3.05;0.73;;;21.40;52.40;;;;;;5033253;28;20034;-89
2021/05/10 00:06:05;;;;;;;2.03;0.70;;;21.40;52.40;;;;;;5035697;28;20072;-90
2021/05/10 00:08:30;;;;;;;2.58;0.93;;;21.40;52.20;;;;;;5052646;28;20044;-89
2021/05/10 00:10:57;;;;;;;4.47;0.65;;;21.40;52.10;;;;;;5057760;28;20021;-89
2021/05/10 00:13:23;;;;;;;1.83;0.70;;;21.40;52.10;;;;;;5057434;28;20028;-89
2021/05/10 00:15:50;;;;;;;2.50;0.60;;;21.40;52.60;;;;;;5056670;28;20029;-89
2021/05/10 00:18:16;;;;;;;1.83;0.60;;;21.40;52.20;;;;;;5058588;28;20045;-88
2021/05/10 00:20:44;;;;;;;2.63;0.60;;;21.30;51.90;;;;;;5056767;28;20059;-91
2021/05/10 00:23:11;;;;;;;2.53;0.65;;;21.30;51.60;;;;;;5055011;28;20381;-92
2021/05/10 00:25:38;;;;;;;3.35;0.65;;;21.40;51.70;;;;;;5020827;28;20028;-89
2021/05/10 00:28:05;;;;;;;2.45;0.60;;;21.40;51.40;;;;;;5052321;28;20025;-89
2021/05/10 00:30:31;;;;;;;3.92;0.60;;;21.40;51.30;;;;;;5062598;28;20032;-90
2021/05/10 00:32:58;;;;;;;3.15;0.68;;;21.40;51.60;;;;;;5046775;28;20032;-89
2021/05/10 00:35:25;;;;;;;2.30;0.55;;;21.40;51.20;;;;;;5072528;28;20085;-90
2021/05/10 00:37:52;;;;;;;4.47;0.50;;;21.40;51.00;;;;;;5070411;28;20068;-88
2021/05/10 00:40:21;;;;;;;2.65;0.70;;;21.40;51.10;;;;;;5055332;28;20053;-88
2021/05/10 00:42:47;;;;;;;2.58;0.55;;;21.40;50.30;;;;;;5036598;28;20018;-87
2021/05/10 00:45:13;;;;;;;1.63;0.60;;;21.40;50.20;;;;;;5037954;28;20143;-90
2021/05/10 00:47:40;;;;;;;1.98;0.63;;;21.40;50.30;;;;;;5037137;28;20021;-89
2021/05/10 00:50:08;;;;;;;4.20;0.57;;;21.40;50.30;;;;;;5036955;28;20036;-90
2021/05/10 00:52:35;;;;;;;1.27;0.50;;;21.40;50.30;;;;;;5037420;28;20060;-90
2021/05/10 00:55:01;;;;;;;1.55;0.70;;;21.40;50.20;;;;;;5021171;28;20017;-88
2021/05/10 00:57:33;;;;;;;2.28;0.68;;;21.40;50.60;;;;;;4999549;28;20026;-90
2021/05/10 01:00:00;;;;;;;1.93;0.80;;;21.30;50.30;;;;;;5015649;28;20183;-89
2021/05/10 01:02:26;;;;;;;4.30;0.90;;;21.30;50.30;;;;;;5017734;28;20026;-90
2021/05/10 01:04:52;;;;;;;1.50;0.60;;;21.20;50.30;;;;;;5016523;28;20228;-88
2021/05/10 01:07:17;;;;;;;3.55;0.55;;;21.20;50.60;;;;;;5018262;28;20030;-89
2021/05/10 01:09:43;;;;;;;2.90;0.70;;;21.20;50.10;;;;;;5000086;28;20037;-89
2021/05/10 01:12:09;;;;;;;2.28;0.70;;;21.20;50.30;;;;;;5016787;28;20032;-89
2021/05/10 01:14:35;;;;;;;1.55;0.47;;;21.10;50.20;;;;;;5035202;28;20037;-87
2021/05/10 01:17:01;;;;;;;2.75;0.60;;;21.10;49.80;;;;;;5045498;28;20036;-88
2021/05/10 01:19:27;;;;;;;2.65;0.50;;;21.20;49.80;;;;;;5073373;28;20092;-89
2021/05/10 01:21:57;;;;;;;2.78;0.50;;;21.10;49.60;;;;;;5076118;28;20021;-90
2021/05/10 01:24:24;;;;;;;2.58;0.40;;;21.10;49.30;;;;;;5063562;28;20035;-87
2021/05/10 01:26:49;;;;;;;1.45;0.50;;;21.20;49.20;;;;;;5048428;28;20042;-90
2021/05/10 01:29:15;;;;;;;2.42;0.50;;;21.20;49.20;;;;;;5031953;28;20087;-86
2021/05/10 01:31:41;;;;;;;1.70;0.40;;;21.20;48.00;;;;;;5031448;28;20099;-88
2021/05/10 01:34:07;;;;;;;11.57;0.60;;;21.40;47.40;;;;;;5032227;28;20016;-89
2021/05/10 01:36:32;;;;;;;2.20;0.30;;;21.40;47.20;;;;;;5028661;28;20089;-85
2021/05/10 01:38:58;;;;;;;3.38;0.55;;;21.50;47.30;;;;;;5031891;28;20034;-87
2021/05/10 01:41:24;;;;;;;10.32;0.50;;;21.50;47.20;;;;;;5050432;28;20050;-87
2021/05/10 01:43:50;;;;;;;2.58;0.32;;;21.50;46.80;;;;;;5048067;28;20029;-87
2021/05/10 01:46:15;;;;;;;2.78;0.47;;;21.60;46.50;;;;;;5043381;28;20121;-90
2021/05/10 01:48:41;;;;;;;4.25;0.47;;;21.60;46.40;;;;;;5036094;28;20038;-90
2021/05/10 01:51:06;;;;;;;3.13;0.40;;;21.60;46.60;;;;;;5052738;28;20033;-90
2021/05/10 01:53:33;;;;;;;2.83;0.68;;;21.70;45.90;;;;;;5034866;28;20034;-89
2021/05/10 01:55:58;;;;;;;3.83;0.40;;;21.70;45.70;;;;;;5017766;28;20124;-89
2021/05/10 01:58:24;;;;;;;3.13;0.30;;;21.80;45.70;;;;;;5018948;28;20068;-89
2021/05/10 02:00:50;;;;;;;2.13;0.30;;;21.80;45.50;;;;;;5019090;28;20026;-87
2021/05/10 02:03:18;;;;;;;1.85;0.40;;;21.80;45.70;;;;;;5052548;28;20025;-89
2021/05/10 02:05:45;;;;;;;2.53;0.40;;;21.80;45.70;;;;;;5036992;28;20025;-89
2021/05/10 02:08:13;;;;;;;2.35;0.40;;;21.80;45.70;;;;;;5037293;28;20041;-88
2021/05/10 02:10:41;;;;;;;5.55;0.45;;;21.80;45.70;;;;;;5035913;28;20462;-89
2021/05/10 02:13:15;;;;;;;6.13;0.55;;;21.80;45.90;;;;;;5049486;28;20375;-84
2021/05/10 02:15:49;;;;;;;4.35;0.40;;;21.80;46.00;;;;;;5055723;28;20382;-87
2021/05/10 02:18:21;;;;;;;1.60;0.30;;;21.70;45.80;;;;;;5054155;28;20051;-88
2021/05/10 02:20:47;;;;;;;3.10;0.50;;;21.80;46.20;;;;;;5055064;28;20075;-90
2021/05/10 02:23:16;;;;;;;2.10;0.30;;;21.70;46.00;;;;;;5036311;28;20021;-86
2021/05/10 02:25:44;;;;;;;2.20;0.30;;;21.70;45.80;;;;;;5035671;28;20025;-90
2021/05/10 02:28:11;;;;;;;3.83;0.40;;;21.70;46.40;;;;;;5035311;28;20033;-89
2021/05/10 02:30:38;;;;;;;8.77;0.45;;;21.80;46.30;;;;;;5036042;28;20095;-89
2021/05/10 02:33:08;;;;;;;1.58;0.35;;;21.80;46.00;;;;;;5018471;28;20075;-90
2021/05/10 02:35:34;;;;;;;1.83;0.32;;;21.80;46.30;;;;;;5036838;28;20108;-89
2021/05/10 02:38:00;;;;;;;5.30;0.40;;;21.80;46.00;;;;;;5039243;28;20028;-84
2021/05/10 02:40:26;;;;;;;6.45;0.40;;;21.80;46.50;;;;;;5042039;28;20057;-89
2021/05/10 02:42:52;;;;;;;3.10;0.40;;;21.70;46.40;;;;;;5048081;28;20037;-86
2021/05/10 02:45:18;;;;;;;4.15;0.22;;;21.70;47.40;;;;;;5033359;28;20025;-85
2021/05/10 02:47:46;;;;;;;3.13;0.30;;;21.70;46.90;;;;;;5052613;28;20029;-89
2021/05/10 02:50:14;;;;;;;2.95;0.40;;;21.60;46.90;;;;;;5054606;28;20116;-88
2021/05/10 02:52:40;;;;;;;3.28;0.38;;;21.60;47.10;;;;;;5056458;28;20028;-88
2021/05/10 02:55:08;;;;;;;2.63;0.40;;;21.50;47.20;;;;;;5038994;28;20081;-87
2021/05/10 02:57:34;;;;;;;0.85;0.40;;;21.50;47.40;;;;;;5035682;28;20026;-88
2021/05/10 03:00:00;;;;;;;1.98;0.40;;;21.40;47.70;;;;;;5036024;28;20018;-89
2021/05/10 03:02:26;;;;;;;3.95;0.40;;;21.30;47.90;;;;;;5036275;28;20014;-87
2021/05/10 03:04:52;;;;;;;1.23;0.22;;;21.30;48.00;;;;;;5029239;28;20020;-88
2021/05/10 03:07:17;;;;;;;3.85;0.32;;;21.30;48.10;;;;;;5072076;28;20139;-90
2021/05/10 03:09:44;;;;;;;2.67;0.40;;;21.30;48.30;;;;;;5054963;28;20055;-87
2021/05/10 03:12:10;;;;;;;2.03;0.35;;;21.30;48.20;;;;;;5049287;28;20025;-88
2021/05/10 03:14:36;;;;;;;3.58;0.43;;;21.30;48.30;;;;;;5050026;28;20045;-87
2021/05/10 03:17:02;;;;;;;2.63;0.43;;;21.30;48.50;;;;;;5030714;28;20098;-87
2021/05/10 03:19:28;;;;;;;3.10;0.50;;;21.30;48.40;;;;;;5046781;28;20052;-86
2021/05/10 03:21:53;;;;;;;2.03;0.35;;;21.30;48.60;;;;;;5030425;28;20435;-87
2021/05/10 03:24:19;;;;;;;2.38;0.40;;;21.20;48.60;;;;;;5023886;28;20030;-89
2021/05/10 03:26:44;;;;;;;2.80;0.30;;;21.20;48.80;;;;;;5035658;28;20497;-86
2021/05/10 03:29:10;;;;;;;4.10;0.40;;;21.20;48.70;;;;;;5017598;28;20421;-85
2021/05/10 03:31:36;;;;;;;2.33;0.40;;;21.20;48.90;;;;;;5019555;28;20580;-88
2021/05/10 03:34:04;;;;;;;1.88;0.40;;;21.10;49.00;;;;;;5052044;28;20025;-87
2021/05/10 03:36:29;;;;;;;3.95;0.50;;;21.10;49.10;;;;;;5039212;28;20446;-85
2021/05/10 03:38:55;;;;;;;1.17;0.30;;;21.10;49.00;;;;;;5041478;28;20053;-87
2021/05/10 03:41:22;;;;;;;3.63;0.30;;;21.10;49.10;;;;;;5040469;28;20064;-86
2021/05/10 03:43:49;;;;;;;3.15;0.40;;;21.10;49.50;;;;;;5058232;28;20032;-88
2021/05/10 03:46:14;;;;;;;2.10;0.30;;;21.00;49.40;;;;;;5038897;28;20540;-87
2021/05/10 03:48:41;;;;;;;4.40;0.88;;;21.10;49.70;;;;;;5055893;28;20029;-87
2021/05/10 03:51:06;;;;;;;2.25;0.38;;;21.00;49.50;;;;;;5055775;28;20071;-86
2021/05/10 03:53:32;;;;;;;1.80;0.30;;;21.00;49.60;;;;;;5033231;28;20036;-88
2021/05/10 03:55:58;;;;;;;3.20;0.40;;;20.90;50.50;;;;;;5006768;28;20085;-87
2021/05/10 03:58:23;;;;;;;5.13;0.40;;;20.90;50.00;;;;;;5035183;28;20065;-87
2021/05/10 04:00:49;;;;;;;1.80;0.30;;;20.90;49.90;;;;;;5052958;28;20030;-89
2021/05/10 04:03:16;;;;;;;3.40;0.32;;;20.80;50.30;;;;;;5036770;28;20037;-88
2021/05/10 04:06:11;;;;;;;1.48;0.35;;;20.80;50.10;;;;;;5052150;28;20153;-89
2021/05/10 04:16:05;;;;;;;2.65;0.40;;;20.80;50.70;;;;;;5041740;28;20040;-89
2021/05/10 04:18:31;;;;;;;2.28;0.40;;;20.70;52.00;;;;;;5038125;28;20037;-91
2021/05/10 04:20:57;;;;;;;3.17;0.40;;;20.70;52.00;;;;;;5038739;28;20458;-89
2021/05/10 04:23:24;;;;;;;3.95;0.40;;;20.70;52.40;;;;;;5038763;28;20021;-88
2021/05/10 04:25:51;;;;;;;4.35;0.40;;;20.60;52.90;;;;;;5040651;28;20026;-89
2021/05/10 04:28:18;;;;;;;1.58;0.35;;;20.50;52.90;;;;;;5021469;28;20385;-86
2021/05/10 04:30:45;;;;;;;2.72;0.40;;;20.40;53.00;;;;;;5038479;28;20029;-88
2021/05/10 04:33:10;;;;;;;2.85;0.30;;;20.40;52.90;;;;;;5023605;28;20029;-86
2021/05/10 04:35:37;;;;;;;2.20;0.32;;;20.40;53.00;;;;;;5037952;28;20360;-85
2021/05/10 04:38:08;;;;;;;2.85;0.47;;;20.40;53.20;;;;;;5022607;28;20096;-87
2021/05/10 04:40:34;;;;;;;2.75;0.57;;;20.40;53.20;;;;;;5037774;28;20054;-87
2021/05/10 04:43:00;;;;;;;1.08;0.40;;;20.30;53.20;;;;;;5037642;28;20030;-89
2021/05/10 04:45:26;;;;;;;2.47;0.40;;;20.40;53.20;;;;;;5021960;28;20032;-89
2021/05/10 04:47:51;;;;;;;3.50;0.40;;;20.40;52.70;;;;;;5025248;28;20060;-88
2021/05/10 04:50:17;;;;;;;2.70;0.30;;;20.40;52.40;;;;;;5044660;28;20041;-88
2021/05/10 04:52:43;;;;;;;4.97;0.40;;;20.50;52.30;;;;;;5046501;28;20048;-89
2021/05/10 04:55:11;;;;;;;4.75;0.40;;;20.50;53.30;;;;;;5054036;28;20037;-89
2021/05/10 04:57:37;;;;;;;8.90;0.55;;;20.50;54.40;;;;;;5046777;28;20207;-89
2021/05/10 05:00:09;;;;;;;14.07;0.70;;;20.40;55.20;;;;;;5045881;28;20575;-86
2021/05/10 05:02:35;;;;;;;8.25;0.80;;;20.30;55.70;;;;;;5049425;28;20354;-88
2021/05/10 05:05:01;;;;;;;7.72;0.50;;;20.30;56.30;;;;;;5033551;28;20034;-88
2021/05/10 05:07:27;;;;;;;5.45;0.40;;;20.20;56.30;;;;;;5047336;28;20048;-89
2021/05/10 05:09:53;;;;;;;10.90;0.55;;;20.20;56.50;;;;;;5039471;28;20034;-88
2021/05/10 05:12:18;;;;;;;8.98;0.70;;;20.20;56.80;;;;;;5051666;28;20153;-88
2021/05/10 05:14:44;;;;;;;3.85;0.40;;;20.10;57.20;;;;;;5036839;28;20102;-88
2021/05/10 05:17:09;;;;;;;9.57;0.40;;;20.10;57.40;;;;;;5036665;28;20025;-87
2021/05/10 05:19:35;;;;;;;6.78;0.40;;;20.00;57.80;;;;;;5044332;28;20021;-89
2021/05/10 05:22:01;;;;;;;11.40;0.50;;;19.90;58.00;;;;;;5036088;28;20033;-88
2021/05/10 05:24:27;;;;;;;2.85;0.20;;;19.70;57.80;;;;;;5036037;28;20033;-90
2021/05/10 05:26:52;;;;;;;5.07;0.20;;;19.70;56.90;;;;;;5043793;28;20044;-91
2021/05/10 05:29:22;;;;;;;2.63;0.20;;;19.70;57.10;;;;;;5065657;28;20057;-90
2021/05/10 05:31:48;;;;;;;2.67;0.20;;;19.60;57.30;;;;;;5038990;28;20128;-90
2021/05/10 05:34:14;;;;;;;2.22;0.20;;;19.60;57.70;;;;;;5025946;28;20029;-87
2021/05/10 05:36:40;;;;;;;0.75;0.10;;;19.60;57.70;;;;;;5022441;28;20382;-90
2021/05/10 05:39:07;;;;;;;1.35;0.13;;;19.60;57.90;;;;;;5022132;28;20034;-92
2021/05/10 05:41:34;;;;;;;1.55;0.13;;;19.70;58.10;;;;;;5035952;28;20260;-85
2021/05/10 05:44:00;;;;;;;0.82;0.20;;;19.70;58.20;;;;;;5035405;28;20032;-87
2021/05/10 05:46:28;;;;;;;1.60;0.30;;;19.80;58.30;;;;;;5035689;28;20026;-87
2021/05/10 05:48:55;;;;;;;2.03;0.20;;;19.90;58.20;;;;;;5036749;28;20033;-89
2021/05/10 05:51:21;;;;;;;1.05;0.28;;;20.00;58.40;;;;;;5036022;28;20052;-89
2021/05/10 05:53:47;;;;;;;1.95;0.30;;;20.10;58.30;;;;;;5038465;28;20029;-88
2021/05/10 05:56:13;;;;;;;3.45;0.30;;;20.20;58.10;;;;;;5034177;28;20032;-86
2021/05/10 05:58:39;;;;;;;2.22;0.20;;;20.30;58.00;;;;;;5033780;28;20037;-88
2021/05/10 06:01:04;;;;;;;1.92;0.20;;;20.50;57.70;;;;;;5018310;28;20045;-88
2021/05/10 06:03:30;;;;;;;1.20;0.20;;;20.60;57.60;;;;;;5021657;28;20026;-88
2021/05/10 06:05:56;;;;;;;0.70;0.20;;;20.80;57.20;;;;;;5045552;28;20025;-87
2021/05/10 06:08:21;;;;;;;1.30;0.30;;;21.60;56.20;;;;;;5027267;28;20045;-87
2021/05/10 06:10:49;;;;;;;0.95;0.20;;;22.30;53.90;;;;;;5044848;28;20116;-89
2021/05/10 06:13:15;;;;;;;2.15;0.20;;;22.40;53.70;;;;;;5049257;28;20076;-89
2021/05/10 06:15:40;;;;;;;3.83;0.20;;;22.50;53.10;;;;;;5052708;28;20048;-88
2021/05/10 06:18:10;;;;;;;1.88;0.30;;;22.60;53.20;;;;;;5033453;28;20102;-89
2021/05/10 06:20:36;;;;;;;1.17;0.20;;;22.50;53.40;;;;;;5046187;28;20033;-89
2021/05/10 06:23:03;;;;;;;0.82;0.20;;;22.50;53.70;;;;;;5029637;28;20026;-90
2021/05/10 06:25:29;;;;;;;0.32;0.20;;;22.40;54.30;;;;;;5025202;28;20048;-90
2021/05/10 06:27:54;;;;;;;2.63;0.30;;;22.30;54.50;;;;;;5026677;28;20492;-86
2021/05/10 06:30:20;;;;;;;2.33;0.47;;;22.50;54.70;;;;;;5038541;28;20359;-88
2021/05/10 06:32:49;;;;;;;5.40;0.70;;;22.70;54.50;;;;;;5044449;28;20147;-93
2021/05/10 06:35:15;;;;;;;1.63;0.50;;;22.80;54.20;;;;;;5045901;28;20028;-89
2021/05/10 06:37:41;;;;;;;1.92;0.32;;;23.10;53.90;;;;;;5038835;28;20044;-90
2021/05/10 06:40:07;;;;;;;3.15;0.40;;;23.10;53.20;;;;;;5024804;28;20053;-87
2021/05/10 06:42:33;;;;;;;2.25;0.40;;;22.70;53.80;;;;;;5023363;28;20033;-87
2021/05/10 06:44:59;;;;;;;2.25;0.30;;;22.30;55.20;;;;;;5037802;28;20037;-90
2021/05/10 06:47:26;;;;;;;2.80;0.40;;;21.80;56.20;;;;;;5044228;28;20029;-90
2021/05/10 06:49:52;;;;;;;3.45;0.40;;;21.40;57.20;;;;;;5028358;28;20055;-89
2021/05/10 06:52:18;;;;;;;2.15;0.63;;;21.10;57.80;;;;;;5030325;28;20043;-86
2021/05/10 06:54:43;;;;;;;4.68;0.70;;;20.80;58.40;;;;;;5049021;28;20104;-87
2021/05/10 06:57:09;;;;;;;3.13;1.10;;;20.60;58.90;;;;;;5051703;28;20477;-87
2021/05/10 06:59:35;;;;;;;4.25;2.55;;;20.50;59.40;;;;;;5029769;28;20472;-89
2021/05/10 07:02:01;;;;;;;6.63;4.50;;;20.50;59.40;;;;;;5025057;28;20485;-90
2021/05/10 07:04:26;;;;;;;11.75;7.15;;;20.60;59.20;;;;;;5027896;28;20041;-88
2021/05/10 07:06:52;;;;;;;3.47;1.25;;;20.80;58.80;;;;;;5034114;28;20105;-86
2021/05/10 07:09:18;;;;;;;5.65;2.53;;;20.80;58.10;;;;;;5031993;28;20029;-90
2021/05/10 07:11:44;;;;;;;6.35;2.25;;;20.70;57.90;;;;;;5054022;28;20037;-89
2021/05/10 07:14:09;;;;;;;5.50;1.30;;;20.80;58.20;;;;;;5036373;28;20085;-85
2021/05/10 07:16:36;;;;;;;3.05;0.70;;;20.90;57.90;;;;;;5022758;28;20044;-90
2021/05/10 07:19:02;;;;;;;5.25;0.88;;;21.30;57.10;;;;;;5046516;28;20045;-89
2021/05/10 07:21:28;;;;;;;2.75;0.28;;;22.10;55.40;;;;;;5049324;28;20033;-87
2021/05/10 07:23:53;;;;;;;5.53;0.70;;;23.00;52.90;;;;;;5037042;28;20105;-88
2021/05/10 07:26:19;;;;;;;3.25;0.60;;;23.90;50.70;;;;;;5053366;28;20036;-88
2021/05/10 07:28:45;;;;;;;7.25;0.80;;;24.70;48.80;;;;;;5035778;28;20037;-88
2021/05/10 07:31:11;;;;;;;4.35;0.63;;;25.00;47.70;;;;;;5032835;28;20167;-84
2021/05/10 07:33:37;;;;;;;4.15;0.40;;;24.80;46.90;;;;;;5020689;28;20534;-88
2021/05/10 07:36:03;;;;;;;1.85;0.52;;;24.20;47.70;;;;;;5018560;28;20079;-88
2021/05/10 07:38:28;;;;;;;2.38;0.30;;;23.60;49.00;;;;;;5052869;28;20029;-86
2021/05/10 07:40:55;;;;;;;2.70;0.50;;;23.00;50.50;;;;;;5036085;28;20110;-87
2021/05/10 07:43:21;;;;;;;1.52;0.30;;;22.60;51.60;;;;;;5035330;28;20033;-89
2021/05/10 07:45:47;;;;;;;2.40;0.40;;;22.20;52.90;;;;;;5016802;28;20034;-89
2021/05/10 07:48:12;;;;;;;1.88;0.40;;;21.90;53.80;;;;;;5030705;28;20447;-89
2021/05/10 07:50:38;;;;;;;3.65;0.43;;;21.60;53.70;;;;;;5053764;28;20037;-86
2021/05/10 07:53:04;;;;;;;2.13;0.30;;;21.30;54.00;;;;;;5033433;28;20217;-88
2021/05/10 07:55:29;;;;;;;4.45;0.40;;;21.10;54.20;;;;;;5051050;28;20059;-85
2021/05/10 07:57:55;;;;;;;1.70;0.40;;;21.10;54.70;;;;;;5032528;28;20110;-84
2021/05/10 08:00:28;;;;;;;3.55;0.95;;;21.00;55.00;;;;;;5031971;28;20030;-85
2021/05/10 08:02:56;;;;;;;8.38;1.05;;;21.10;55.20;;;;;;5049631;28;20472;-86
2021/05/10 08:05:22;;;;;;;4.10;0.93;;;21.30;54.90;;;;;;5040014;28;20211;-86
2021/05/10 08:07:48;;;;;;;2.03;0.50;;;21.50;54.60;;;;;;5029868;28;20151;-84
2021/05/10 08:10:14;;;;;;;5.68;0.88;;;21.60;53.80;;;;;;5036917;28;20032;-86
2021/05/10 08:12:40;;;;;;;3.00;0.93;;;21.90;54.10;;;;;;5030178;28;20025;-84
2021/05/10 08:15:06;;;;;;;1.70;0.60;;;22.50;52.90;;;;;;5029433;28;20095;-88
2021/05/10 08:17:34;;;;;;;2.15;0.30;;;23.10;52.00;;;;;;5028266;28;20030;-85
2021/05/10 08:20:00;;;;;;;3.00;0.40;;;23.60;50.40;;;;;;5017132;28;20092;-83
2021/05/10 08:22:26;;;;;;;2.03;0.40;;;23.90;49.20;;;;;;5027864;28;20030;-85
2021/05/10 08:24:51;;;;;;;3.53;0.50;;;23.80;49.20;;;;;;5037997;28;20029;-86
2021/05/10 08:27:17;;;;;;;1.10;0.40;;;23.80;49.60;;;;;;5049393;28;20466;-85
2021/05/10 08:29:43;;;;;;;2.70;0.40;;;23.80;48.90;;;;;;5016024;28;20095;-85
2021/05/10 08:32:08;;;;;;;1.55;0.30;;;23.50;48.80;;;;;;5028838;28;20034;-86
2021/05/10 08:34:34;;;;;;;1.90;0.30;;;23.30;49.30;;;;;;5013743;28;20037;-84
2021/05/10 08:37:00;;;;;;;2.13;0.30;;;23.20;49.80;;;;;;5030806;28;20061;-83
2021/05/10 08:39:25;;;;;;;4.35;0.40;;;23.10;50.00;;;;;;5038688;28;20456;-84
2021/05/10 08:41:51;;;;;;;0.85;0.30;;;22.80;50.30;;;;;;5035221;28;20060;-86
2021/05/10 08:44:19;;;;;;;3.60;0.40;;;22.70;50.70;;;;;;5032578;28;20045;-87
2021/05/10 08:46:45;;;;;;;2.47;0.30;;;22.70;50.70;;;;;;5035351;28;20482;-84
2021/05/10 08:49:12;;;;;;;2.95;0.38;;;22.70;50.50;;;;;;5029721;28;20040;-84
2021/05/10 08:51:40;;;;;;;1.95;0.30;;;23.20;50.50;;;;;;5056591;28;20017;-85
2021/05/10 08:54:26;;;;;;;1.58;0.40;;;24.10;48.50;;;;;;5044144;28;20156;-84
2021/05/10 08:56:53;;;;;;;1.08;0.30;;;24.40;47.10;;;;;;5036571;28;20142;-83
2021/05/10 08:59:20;;;;;;;1.45;0.30;;;24.10;47.30;;;;;;5019269;28;20187;-84
2021/05/10 09:01:58;;;;;;;1.20;0.40;;;23.70;48.20;;;;;;5036184;28;20021;-83
2021/05/10 09:04:29;;;;;;;2.58;0.40;;;23.40;49.10;;;;;;5044654;28;20729;-83
2021/05/10 09:07:10;;;;;;;3.67;0.30;;;23.20;49.60;;;;;;5057075;28;20032;-85
2021/05/10 09:10:00;;;;;;;1.73;0.30;;;23.00;49.80;;;;;;5058233;28;20031;-84
2021/05/10 09:12:47;;;;;;;2.13;0.30;;;23.00;49.90;;;;;;5040595;28;20071;-85
2021/05/10 09:15:19;;;;;;;1.67;0.40;;;22.90;50.30;;;;;;5056296;28;20032;-87
2021/05/10 09:17:49;;;;;;;3.03;0.50;;;22.60;50.40;;;;;;5055026;28;20036;-85
2021/05/10 09:20:21;;;;;;;0.50;0.20;;;22.40;51.40;;;;;;5055605;28;20032;-83
2021/05/10 09:22:54;;;;;;;2.03;0.40;;;22.40;51.60;;;;;;5057209;28;20025;-86
2021/05/10 09:25:42;;;;;;;1.92;0.30;;;22.30;51.30;;;;;;5035802;28;20025;-86
2021/05/10 09:28:19;;;;;;;2.28;0.30;;;22.10;51.60;;;;;;5034670;28;20105;-84
2021/05/10 09:30:49;;;;;;;0.93;0.30;;;21.80;52.30;;;;;;5022288;28;20488;-85
2021/05/10 09:33:25;;;;;;;1.33;0.30;;;21.60;52.90;;;;;;5038662;28;20033;-82
2021/05/10 09:35:54;;;;;;;1.52;0.28;;;21.50;53.00;;;;;;5035511;28;20318;-83
2021/05/10 09:38:24;;;;;;;1.65;0.40;;;21.40;53.10;;;;;;5034378;28;20119;-85
2021/05/10 09:40:54;;;;;;;2.47;0.30;;;21.30;53.30;;;;;;5035874;28;20444;-85
2021/05/10 09:43:23;;;;;;;3.35;0.38;;;21.00;52.50;;;;;;5046761;28;20108;-83
2021/05/10 09:45:50;;;;;;;3.72;0.30;;;20.50;53.10;;;;;;5053692;28;20049;-85
2021/05/10 09:48:23;;;;;;;1.63;0.30;;;20.10;54.00;;;;;;5036346;28;20029;-85
2021/05/10 09:50:50;;;;;;;0.80;0.30;;;19.80;54.90;;;;;;5017815;28;20037;-85
2021/05/10 09:53:33;;;;;;;1.45;0.22;;;19.50;55.50;;;;;;5013147;28;20049;-84
2021/05/10 09:56:00;;;;;;;1.67;0.30;;;19.40;55.80;;;;;;5013648;28;20030;-83
2021/05/10 09:58:44;;;;;;;1.10;0.30;;;19.30;56.20;;;;;;5011842;28;20049;-82
2021/05/10 10:01:11;;;;;;;1.52;0.30;;;19.30;56.80;;;;;;5013527;28;20026;-83
2021/05/10 10:03:39;;;;;;;1.05;0.30;;;19.20;56.70;;;;;;5046997;28;20366;-85
2021/05/10 10:06:17;;;;;;;1.23;0.32;;;19.10;58.80;;;;;;5049247;28;20021;-86
2021/05/10 10:08:45;;;;;;;1.42;0.30;;;18.90;61.60;;;;;;5054924;28;20089;-85
2021/05/10 10:11:17;;;;;;;3.85;0.40;;;18.60;63.10;;;;;;5053946;28;20449;-89
2021/05/10 10:13:44;;;;;;;2.63;0.40;;;18.40;64.00;;;;;;5052024;28;20032;-88
2021/05/10 10:16:10;;;;;;;1.40;0.40;;;18.30;64.30;;;;;;5049729;28;20021;-87
2021/05/10 10:18:38;;;;;;;1.23;0.40;;;18.30;64.70;;;;;;5035438;28;20050;-85
2021/05/10 10:21:05;;;;;;;3.50;0.50;;;18.20;65.10;;;;;;5047045;28;20107;-82
2021/05/10 10:23:33;;;;;;;3.17;0.50;;;18.10;65.50;;;;;;5020207;28;20025;-89
2021/05/10 10:26:00;;;;;;;0.85;0.40;;;18.10;65.80;;;;;;5033587;28;20120;-89
2021/05/10 10:28:28;;;;;;;2.03;0.43;;;18.10;66.10;;;;;;5023565;28;20036;-88
2021/05/10 10:31:08;;;;;;;2.65;0.50;;;18.20;66.60;;;;;;5053337;28;20040;-89
2021/05/10 10:33:49;;;;;;;2.35;0.50;;;18.10;66.60;;;;;;5039895;28;20394;-87
2021/05/10 10:36:21;;;;;;;2.70;0.50;;;18.10;67.10;;;;;;5031505;28;20030;-86
2021/05/10 10:38:47;;;;;;;1.77;0.57;;;18.10;67.20;;;;;;5033054;28;20037;-83
2021/05/10 10:41:20;;;;;;;0.90;0.43;;;18.00;67.70;;;;;;5033872;28;20045;-89
2021/05/10 10:43:47;;;;;;;1.55;0.60;;;18.00;67.60;;;;;;5041669;28;20028;-85
2021/05/10 10:46:28;;;;;;;2.30;0.50;;;18.00;67.60;;;;;;5052004;28;20036;-87
2021/05/10 10:48:57;;;;;;;2.03;0.50;;;18.10;67.80;;;;;;5049520;28;20838;-89
2021/05/10 10:51:25;;;;;;;3.20;0.60;;;18.00;67.80;;;;;;5018017;28;20030;-86
2021/05/10 10:53:55;;;;;;;1.40;0.80;;;18.00;67.90;;;;;;5036110;28;20057;-89
2021/05/10 10:56:58;;;;;;;2.97;0.70;;;18.10;67.70;;;;;;5039731;28;20083;-86
2021/05/10 10:59:26;;;;;;;1.83;0.80;;;18.20;67.90;;;;;;5044281;28;20038;-87
2021/05/10 11:01:52;;;;;;;1.88;0.80;;;18.20;67.50;;;;;;5039175;28;20025;-85
2021/05/10 11:04:30;;;;;;;2.20;0.70;;;18.10;67.20;;;;;;5035471;28;20037;-83
2021/05/10 11:06:57;;;;;;;1.48;0.52;;;18.20;67.20;;;;;;5039968;28;20030;-86
2021/05/10 11:09:53;;;;;;;2.45;0.50;;;18.20;66.40;;;;;;5035801;28;20075;-82
2021/05/10 11:13:06;;;;;;;2.13;0.60;;;18.10;66.10;;;;;;5045643;28;20040;-89
2021/05/10 11:15:35;;;;;;;2.85;0.90;;;18.10;66.40;;;;;;5041761;28;20507;-84
2021/05/10 11:18:02;;;;;;;2.40;0.65;;;18.00;65.90;;;;;;5031894;28;20037;-85
2021/05/10 11:20:40;;;;;;;4.28;0.60;;;18.00;65.80;;;;;;5016839;28;20060;-84
2021/05/10 11:23:24;;;;;;;2.85;0.50;;;17.90;65.30;;;;;;5012372;28;20477;-82
2021/05/10 11:25:50;;;;;;;1.45;0.43;;;17.70;65.70;;;;;;5028051;28;20033;-84
2021/05/10 11:28:25;;;;;;;4.32;0.80;;;17.60;66.10;;;;;;5011838;28;20028;-83
2021/05/10 11:30:55;;;;;;;3.13;0.85;;;17.50;66.40;;;;;;5027999;28;20034;-81
2021/05/10 11:33:55;;;;;;;2.10;0.68;;;17.50;66.10;;;;;;5027341;28;20033;-82
2021/05/10 11:36:26;;;;;;;2.92;0.47;;;17.50;66.10;;;;;;5027823;28;20030;-87
2021/05/10 11:38:52;;;;;;;3.85;0.73;;;17.60;65.90;;;;;;5027381;28;20097;-82
2021/05/10 11:41:19;;;;;;;1.98;0.70;;;17.70;65.60;;;;;;5026741;28;20123;-82
2021/05/10 11:43:45;;;;;;;2.53;0.57;;;17.80;65.20;;;;;;5012730;28;20042;-84
2021/05/10 11:46:11;;;;;;;5.80;0.50;;;17.80;65.00;;;;;;5031795;28;20050;-85
2021/05/10 11:48:41;;;;;;;2.67;0.90;;;17.60;64.60;;;;;;5013419;28;20651;-83
2021/05/10 11:51:21;;;;;;;1.83;0.55;;;17.40;65.90;;;;;;5013977;28;20083;-82
2021/05/10 11:53:55;;;;;;;3.53;0.70;;;17.50;66.40;;;;;;5014107;28;20037;-84
2021/05/10 11:56:25;;;;;;;1.38;0.40;;;17.60;64.80;;;;;;5013534;28;20041;-83
2021/05/10 11:58:58;;;;;;;4.88;0.50;;;17.60;64.80;;;;;;5013158;28;20072;-84
2021/05/10 12:01:38;;;;;;;3.22;0.43;;;17.50;64.50;;;;;;5011472;28;20148;-82
2021/05/10 12:04:24;;;;;;;4.32;0.68;;;17.40;64.70;;;;;;5013499;28;20030;-81
2021/05/10 12:06:51;;;;;;;2.90;0.95;;;17.40;65.30;;;;;;4995420;28;20026;-82
2021/05/10 12:09:35;;;;;;;3.35;0.40;;;17.60;65.30;;;;;;5012626;28;20029;-85
2021/05/10 12:12:14;;;;;;;5.78;0.75;;;17.90;64.30;;;;;;5011158;28;20062;-85
2021/05/10 12:14:47;;;;;;;2.00;0.40;;;18.00;63.50;;;;;;5011805;28;20022;-83
2021/05/10 12:17:15;;;;;;;3.47;0.60;;;18.30;63.50;;;;;;5015388;28;20030;-82
2021/05/10 12:20:05;;;;;;;6.10;0.70;;;18.50;62.90;;;;;;5014434;28;20073;-83
2021/05/10 12:22:35;;;;;;;2.90;0.50;;;18.70;62.50;;;;;;5032696;28;20034;-81
2021/05/10 12:25:10;;;;;;;2.60;0.68;;;18.80;62.60;;;;;;5034878;28;20025;-82
2021/05/10 12:27:44;;;;;;;3.92;0.70;;;19.00;62.30;;;;;;5033571;28;20038;-82
2021/05/10 12:30:14;;;;;;;3.08;0.60;;;19.40;62.30;;;;;;5036289;28;20067;-81
2021/05/10 12:32:41;;;;;;;2.28;0.50;;;19.40;60.70;;;;;;5033890;28;20503;-83
2021/05/10 12:35:11;;;;;;;3.13;0.70;;;19.40;61.10;;;;;;5033807;28;20030;-82
2021/05/10 12:37:41;;;;;;;2.85;0.60;;;19.30;61.10;;;;;;5033505;28;20036;-82
2021/05/10 12:40:09;;;;;;;2.65;0.77;;;19.30;62.00;;;;;;5034053;28;20026;-83
2021/05/10 12:42:35;;;;;;;5.05;0.68;;;19.60;62.20;;;;;;5034272;28;20131;-81
2021/05/10 12:45:14;;;;;;;3.35;0.70;;;19.90;60.60;;;;;;5033785;28;20454;-83
2021/05/10 12:47:42;;;;;;;2.33;0.65;;;20.00;61.00;;;;;;5017163;28;20115;-80
2021/05/10 12:50:11;;;;;;;4.57;0.80;;;20.20;61.50;;;;;;5032650;28;20092;-81
2021/05/10 12:52:54;;;;;;;2.85;0.88;;;20.30;61.10;;;;;;5034423;28;20021;-81
2021/05/10 12:55:22;;;;;;;2.38;0.95;;;20.70;61.00;;;;;;5034577;28;20082;-82
2021/05/10 12:57:50;;;;;;;2.83;1.10;;;21.10;59.50;;;;;;5036507;28;20424;-79
2021/05/10 13:00:30;;;;;;;3.58;0.70;;;21.20;60.90;;;;;;5037665;28;20033;-81